Time;durP1;ratioP1;P1;durP2;ratioP2;P2;SDS_P1;SDS_P2;PMS_P1;PMS_P2;Temp;Humidity;BMP_temperature;BMP_pressure;BME280_temperature;BME280_humidity;BME280_pressure;Samples;Min_cycle;Max_cycle;Signal;HPM_P1;HPM_P2
2022/01/23 00:02:12;;;;;;;16.83;14.00;;;16.60;65.10;;;;;;5086667;28;43611;-69
2022/01/23 00:04:41;;;;;;;18.97;14.17;;;16.80;64.80;;;;;;5071272;28;44028;-70
2022/01/23 00:07:11;;;;;;;17.53;13.73;;;16.80;64.40;;;;;;5069094;28;45393;-69
2022/01/23 00:09:40;;;;;;;17.90;13.30;;;16.80;64.40;;;;;;5068887;28;44692;-69
2022/01/23 00:12:12;;;;;;;16.90;13.50;;;16.70;64.50;;;;;;5069748;28;43417;-69
2022/01/23 00:17:39;;;;;;;16.27;12.33;;;16.60;65.10;;;;;;5007068;28;46746;-69
2022/01/23 00:20:12;;;;;;;16.93;12.57;;;16.50;65.30;;;;;;5068362;28;44146;-69
2022/01/23 00:22:44;;;;;;;16.13;12.70;;;16.40;65.40;;;;;;5079515;27;44027;-70
2022/01/23 00:30:48;;;;;;;15.47;13.40;;;16.30;65.80;;;;;;5071307;28;45027;-69
2022/01/23 00:33:18;;;;;;;13.47;11.73;;;16.30;66.10;;;;;;5063365;28;43901;-70
2022/01/23 00:35:49;;;;;;;16.73;12.80;;;16.30;66.20;;;;;;5080206;27;44054;-70
2022/01/23 00:38:17;;;;;;;15.83;12.67;;;16.40;65.90;;;;;;5081492;28;44009;-70
2022/01/23 00:40:46;;;;;;;17.53;12.87;;;16.50;65.40;;;;;;5085571;28;43999;-70
2022/01/23 00:43:17;;;;;;;14.70;11.80;;;16.50;65.00;;;;;;5069326;28;43926;-69
2022/01/23 00:45:48;;;;;;;15.93;12.83;;;16.50;65.10;;;;;;5085761;28;43592;-69
2022/01/23 00:48:21;;;;;;;14.23;12.00;;;16.40;65.20;;;;;;5085032;28;45642;-69
2022/01/23 00:50:49;;;;;;;14.70;12.23;;;16.40;65.40;;;;;;5069673;28;45056;-69
2022/01/23 00:53:17;;;;;;;14.17;12.67;;;16.30;65.50;;;;;;5068781;28;43952;-70
2022/01/23 00:55:46;;;;;;;15.70;12.17;;;16.30;65.80;;;;;;5085930;27;44015;-69
2022/01/23 00:58:16;;;;;;;15.23;12.43;;;16.30;65.80;;;;;;5069163;28;45935;-70
2022/01/23 01:00:44;;;;;;;14.27;11.97;;;16.20;65.90;;;;;;5068507;28;44373;-69
2022/01/23 01:03:13;;;;;;;12.50;11.20;;;16.20;65.90;;;;;;5085485;27;43356;-69
2022/01/23 01:05:42;;;;;;;13.97;11.63;;;16.20;66.00;;;;;;5085782;28;44047;-70
2022/01/23 01:08:10;;;;;;;15.07;12.20;;;16.20;66.10;;;;;;5085060;28;44122;-70
2022/01/23 01:10:45;;;;;;;12.53;11.20;;;16.20;66.20;;;;;;5085526;28;44035;-70
2022/01/23 01:13:14;;;;;;;13.77;12.27;;;16.20;66.30;;;;;;5069254;28;44016;-70
2022/01/23 01:16:00;;;;;;;14.90;11.63;;;16.20;66.40;;;;;;5069095;28;44015;-69
2022/01/23 01:32:39;;;;;;;12.73;10.83;;;16.90;64.10;;;;;;5085996;27;43484;-70
2022/01/23 01:35:18;;;;;;;12.97;11.23;;;16.80;64.30;;;;;;5070550;28;44008;-70
2022/01/23 01:37:48;;;;;;;11.73;10.53;;;16.60;64.50;;;;;;5070338;28;44180;-69
2022/01/23 01:40:19;;;;;;;12.40;11.10;;;16.60;64.80;;;;;;5068229;28;46231;-69
2022/01/23 01:42:47;;;;;;;13.13;11.27;;;16.50;65.10;;;;;;5084524;28;44400;-70
2022/01/23 01:45:21;;;;;;;12.40;11.10;;;16.40;65.20;;;;;;5068804;28;43976;-68
2022/01/23 01:47:59;;;;;;;12.47;10.90;;;16.40;65.40;;;;;;5085709;28;43498;-70
2022/01/23 01:50:28;;;;;;;11.37;10.17;;;16.30;65.50;;;;;;5068024;28;44544;-69
2022/01/23 01:53:00;;;;;;;11.83;10.60;;;16.30;65.80;;;;;;5061927;28;43965;-69
2022/01/23 01:55:37;;;;;;;13.37;11.53;;;16.30;66.00;;;;;;5067478;28;44097;-70
2022/01/23 01:58:06;;;;;;;12.30;11.00;;;16.50;65.70;;;;;;5069661;28;44007;-70
2022/01/23 02:00:46;;;;;;;11.50;10.30;;;16.60;65.30;;;;;;5084510;28;44026;-69
2022/01/23 02:08:18;;;;;;;14.43;11.40;;;16.60;64.90;;;;;;5069811;28;44038;-70
2022/01/23 02:09:32;;;;;;;12.40;10.67;;;16.50;65.20;;;;;;5078672;28;44016;-70
2022/01/23 02:12:17;;;;;;;11.63;10.43;;;16.40;65.40;;;;;;5076718;28;44337;-70
2022/01/23 02:15:09;;;;;;;10.97;9.97;;;16.30;65.50;;;;;;5084625;28;44074;-69
2022/01/23 02:17:54;;;;;;;11.70;10.60;;;16.30;65.70;;;;;;5070394;28;44028;-69
2022/01/23 02:23:29;;;;;;;10.47;9.57;;;16.20;66.20;;;;;;5084289;28;45994;-69
2022/01/23 02:51:35;;;;;;;10.50;9.50;;;16.90;63.70;;;;;;5050696;28;43434;-70
2022/01/23 02:54:25;;;;;;;10.30;9.30;;;16.80;64.00;;;;;;5073358;28;43973;-70
2022/01/23 02:56:58;;;;;;;10.30;9.30;;;16.70;64.30;;;;;;5073962;28;45062;-70
2022/01/23 02:59:29;;;;;;;10.53;9.53;;;16.50;64.50;;;;;;5089095;27;44025;-70
2022/01/23 03:02:24;;;;;;;10.77;9.67;;;16.50;64.70;;;;;;5068345;28;44095;-70
2022/01/23 03:05:22;;;;;;;10.90;9.83;;;16.40;64.90;;;;;;5075216;28;43590;-69
2022/01/23 03:07:58;;;;;;;12.03;10.83;;;16.40;65.10;;;;;;5089365;27;43924;-69
2022/01/23 03:10:31;;;;;;;11.70;10.40;;;16.30;65.20;;;;;;5087135;28;43991;-69
2022/01/23 03:16:14;;;;;;;10.77;9.70;;;16.40;65.40;;;;;;5087921;28;43499;-70
2022/01/23 03:24:37;;;;;;;11.37;10.13;;;16.80;63.70;;;;;;5066389;28;44079;-69
2022/01/23 03:27:27;;;;;;;10.23;9.23;;;16.80;63.60;;;;;;5086088;28;44111;-70
2022/01/23 03:30:02;;;;;;;10.87;9.77;;;16.70;63.80;;;;;;5086420;28;45297;-69
2022/01/23 03:32:36;;;;;;;11.17;10.07;;;16.60;64.10;;;;;;5081104;28;43885;-70
2022/01/23 03:35:07;;;;;;;10.13;9.23;;;16.50;64.40;;;;;;5087028;28;43929;-69
2022/01/23 03:37:35;;;;;;;10.40;9.50;;;16.50;64.70;;;;;;5086896;28;44211;-69
2022/01/23 03:40:04;;;;;;;10.03;9.20;;;16.40;64.70;;;;;;5087218;28;43917;-70
2022/01/23 03:42:36;;;;;;;9.67;8.87;;;16.40;65.00;;;;;;5069475;28;43879;-70
2022/01/23 03:45:26;;;;;;;10.47;9.47;;;16.30;65.10;;;;;;5053822;28;43444;-69
2022/01/23 03:49:30;;;;;;;10.00;9.10;;;16.30;65.20;;;;;;5087391;28;44019;-70
2022/01/23 03:50:50;;;;;;;9.87;9.00;;;16.20;65.20;;;;;;5073323;28;43956;-69
2022/01/23 03:53:38;;;;;;;9.83;9.00;;;16.30;65.50;;;;;;5075597;28;43998;-70
2022/01/23 03:56:06;;;;;;;9.87;8.87;;;16.40;65.10;;;;;;5069372;27;44041;-69
2022/01/23 03:58:38;;;;;;;9.50;8.70;;;16.50;64.70;;;;;;5086310;28;44082;-69
2022/01/23 04:01:10;;;;;;;10.13;9.23;;;16.50;64.50;;;;;;5050210;28;43957;-69
2022/01/23 04:03:40;;;;;;;9.13;8.33;;;16.50;64.60;;;;;;5052731;28;43985;-69
2022/01/23 04:06:10;;;;;;;9.50;8.70;;;16.40;64.70;;;;;;5086426;28;43999;-70
2022/01/23 04:08:43;;;;;;;9.33;8.60;;;16.40;64.80;;;;;;5054223;28;43886;-70
2022/01/23 04:11:12;;;;;;;9.73;8.73;;;16.30;64.90;;;;;;5086123;28;45639;-69
2022/01/23 04:13:46;;;;;;;8.60;7.90;;;16.30;65.10;;;;;;5069327;28;44799;-70
2022/01/23 04:16:37;;;;;;;9.70;8.90;;;16.30;65.20;;;;;;5086240;28;43917;-69
2022/01/23 04:19:14;;;;;;;9.17;8.37;;;16.20;65.30;;;;;;5072952;28;44135;-70
2022/01/23 04:33:25;;;;;;;10.00;9.00;;;16.20;65.60;;;;;;5071796;28;44040;-70
2022/01/23 05:01:20;;;;;;;15.10;10.27;;;16.50;65.20;;;;;;5071327;28;43961;-70
2022/01/23 05:07:00;;;;;;;15.33;10.53;;;16.30;64.70;;;;;;5085981;28;44275;-69
2022/01/23 05:09:49;;;;;;;17.90;11.33;;;16.30;64.90;;;;;;5082346;28;44040;-69
2022/01/23 05:12:31;;;;;;;16.57;11.13;;;16.30;65.80;;;;;;5070014;28;44007;-70
2022/01/23 05:15:00;;;;;;;15.07;10.43;;;16.40;64.80;;;;;;5069678;28;43981;-70
2022/01/23 05:17:31;;;;;;;16.17;10.47;;;16.60;64.40;;;;;;5068284;28;45407;-70
2022/01/23 05:20:00;;;;;;;15.03;10.97;;;16.60;64.10;;;;;;5068673;28;44313;-69
2022/01/23 05:22:35;;;;;;;15.37;10.67;;;16.60;64.20;;;;;;5061561;28;44022;-69
2022/01/23 05:25:11;;;;;;;14.53;10.40;;;16.50;64.30;;;;;;5080639;28;43479;-68
2022/01/23 05:27:39;;;;;;;13.63;10.27;;;16.40;64.50;;;;;;5069135;28;45776;-69
2022/01/23 05:30:09;;;;;;;12.53;10.13;;;16.40;64.60;;;;;;5067587;28;44140;-70
2022/01/23 05:32:40;;;;;;;13.53;9.57;;;16.30;64.80;;;;;;5084746;28;43926;-69
2022/01/23 05:35:13;;;;;;;11.43;10.00;;;16.30;64.90;;;;;;5069664;28;43836;-69
2022/01/23 05:37:42;;;;;;;13.60;10.03;;;16.30;65.10;;;;;;5068148;28;44042;-69
2022/01/23 05:40:19;;;;;;;13.03;10.53;;;16.30;65.10;;;;;;5069010;28;44657;-69
2022/01/23 05:42:51;;;;;;;13.83;10.03;;;16.20;65.10;;;;;;5069254;28;43994;-70
2022/01/23 05:45:20;;;;;;;13.10;9.40;;;16.20;65.20;;;;;;5086698;27;43966;-70
2022/01/23 05:48:06;;;;;;;12.03;9.33;;;16.20;65.20;;;;;;5082216;28;43993;-70
2022/01/23 05:50:52;;;;;;;14.10;10.17;;;16.20;65.60;;;;;;5056061;28;43965;-70
2022/01/23 05:53:39;;;;;;;14.13;9.97;;;16.20;65.30;;;;;;5082241;28;43865;-69
2022/01/23 05:56:26;;;;;;;14.03;10.63;;;16.40;64.80;;;;;;5082402;28;43964;-70
2022/01/23 05:59:16;;;;;;;13.80;9.87;;;16.60;64.30;;;;;;5070620;28;45577;-70
2022/01/23 06:01:47;;;;;;;13.47;10.00;;;16.80;63.60;;;;;;5084373;28;45575;-70
2022/01/23 06:04:18;;;;;;;15.93;10.57;;;17.00;63.30;;;;;;5068580;28;43928;-69
2022/01/23 06:07:00;;;;;;;10.07;8.97;;;16.90;62.90;;;;;;5069863;28;43979;-70
2022/01/23 06:09:28;;;;;;;11.47;9.47;;;16.80;63.10;;;;;;5067820;28;43983;-68
2022/01/23 06:11:58;;;;;;;11.17;9.60;;;16.70;63.40;;;;;;5051575;28;44764;-69
2022/01/23 06:14:26;;;;;;;9.73;8.73;;;16.60;63.70;;;;;;5067915;28;43849;-70
2022/01/23 06:16:55;;;;;;;12.83;9.30;;;16.60;64.10;;;;;;5068201;28;44056;-69
2022/01/23 06:19:43;;;;;;;11.33;9.63;;;16.50;64.20;;;;;;5051497;28;44242;-70
2022/01/23 06:22:45;;;;;;;11.90;9.47;;;16.40;64.40;;;;;;5052068;27;44636;-69
2022/01/23 06:25:34;;;;;;;10.23;9.13;;;16.40;64.60;;;;;;5084005;28;43986;-70
2022/01/23 06:28:31;;;;;;;10.17;9.07;;;16.30;64.60;;;;;;5083155;28;43657;-69
2022/01/23 06:30:59;;;;;;;11.63;9.80;;;16.30;64.80;;;;;;5067050;28;45406;-70
2022/01/23 06:33:27;;;;;;;10.40;9.20;;;16.30;64.90;;;;;;5084025;28;43454;-70
2022/01/23 06:35:56;;;;;;;11.43;9.60;;;16.50;64.70;;;;;;5084349;28;44045;-70
2022/01/23 06:38:26;;;;;;;12.17;8.93;;;16.60;64.10;;;;;;5067606;28;44231;-69
2022/01/23 06:40:54;;;;;;;13.07;10.30;;;16.80;63.70;;;;;;5067135;28;44932;-69
2022/01/23 06:43:42;;;;;;;11.03;8.93;;;16.80;63.20;;;;;;5069707;28;43420;-70
2022/01/23 06:46:22;;;;;;;9.77;8.30;;;16.80;63.30;;;;;;5053350;28;43420;-69
2022/01/23 06:48:50;;;;;;;10.23;9.07;;;16.70;63.50;;;;;;5068093;28;43910;-69
2022/01/23 06:51:18;;;;;;;9.57;8.63;;;16.60;63.80;;;;;;5067218;28;46721;-70
2022/01/23 06:53:49;;;;;;;9.60;8.60;;;16.60;64.10;;;;;;5067647;28;44152;-70
2022/01/23 06:56:20;;;;;;;8.83;7.97;;;16.50;64.30;;;;;;5051061;28;43993;-70
2022/01/23 06:58:49;;;;;;;10.37;8.87;;;16.40;64.40;;;;;;5067612;28;44027;-69
2022/01/23 07:01:18;;;;;;;10.80;8.47;;;16.40;64.60;;;;;;5083878;28;44016;-69
2022/01/23 07:03:49;;;;;;;9.40;8.30;;;16.30;64.50;;;;;;5067487;28;44336;-70
2022/01/23 07:06:52;;;;;;;9.40;8.50;;;16.30;64.70;;;;;;5079404;28;44020;-69
2022/01/23 07:09:51;;;;;;;9.50;8.60;;;16.30;64.80;;;;;;5081595;28;43937;-70
2022/01/23 07:12:32;;;;;;;9.67;8.60;;;16.30;65.00;;;;;;5068244;28;45508;-69
2022/01/23 07:15:00;;;;;;;9.70;8.30;;;16.40;64.80;;;;;;5083969;28;43810;-70
2022/01/23 07:17:41;;;;;;;8.63;7.83;;;16.60;64.40;;;;;;5080847;28;43947;-70
2022/01/23 07:20:24;;;;;;;9.17;8.23;;;16.70;63.60;;;;;;5054802;28;44002;-70
2022/01/23 07:22:56;;;;;;;9.50;8.07;;;16.80;63.30;;;;;;5067192;28;44042;-69
2022/01/23 07:25:26;;;;;;;8.63;7.73;;;16.70;63.30;;;;;;5066780;28;44724;-70
2022/01/23 07:27:57;;;;;;;8.97;8.17;;;16.70;63.50;;;;;;5083437;28;44006;-70
2022/01/23 07:30:34;;;;;;;9.43;8.43;;;16.60;63.80;;;;;;5066809;28;43959;-70
2022/01/23 07:33:03;;;;;;;8.90;7.77;;;16.50;64.00;;;;;;5055016;28;45079;-70
2022/01/23 07:35:32;;;;;;;8.73;7.93;;;16.40;64.20;;;;;;5069903;28;44050;-71
2022/01/23 07:38:02;;;;;;;8.30;7.50;;;16.40;64.50;;;;;;5085996;28;44042;-70
2022/01/23 07:41:07;;;;;;;8.63;7.83;;;16.30;64.60;;;;;;5085169;28;43461;-70
2022/01/23 07:43:43;;;;;;;8.87;8.00;;;16.30;64.60;;;;;;5055882;28;45701;-70
2022/01/23 07:46:31;;;;;;;9.83;8.43;;;16.30;64.80;;;;;;5084577;28;44077;-69
2022/01/23 07:49:20;;;;;;;8.57;7.77;;;16.20;64.70;;;;;;5081786;28;43950;-69
2022/01/23 07:52:09;;;;;;;9.37;8.47;;;16.30;65.00;;;;;;5085103;28;43967;-70
2022/01/23 07:54:42;;;;;;;9.17;8.27;;;16.40;64.60;;;;;;5055214;28;44072;-70
2022/01/23 07:57:35;;;;;;;8.43;7.67;;;16.60;64.20;;;;;;5083893;28;43901;-70
2022/01/23 08:00:38;;;;;;;8.73;7.93;;;16.80;63.60;;;;;;5074557;28;43998;-69
2022/01/23 08:03:07;;;;;;;7.97;7.27;;;16.80;63.00;;;;;;5087206;28;44063;-69
2022/01/23 08:05:36;;;;;;;7.60;6.90;;;16.80;63.20;;;;;;5087149;28;43528;-69
2022/01/23 08:08:37;;;;;;;9.27;7.63;;;16.70;63.30;;;;;;5065138;28;44179;-69
2022/01/23 08:11:10;;;;;;;7.17;6.67;;;16.60;63.70;;;;;;5071141;28;43365;-69
2022/01/23 08:13:39;;;;;;;7.57;6.83;;;16.50;63.90;;;;;;5087157;27;44004;-69
2022/01/23 08:16:07;;;;;;;8.50;7.70;;;16.40;64.10;;;;;;5070235;28;43972;-70
2022/01/23 08:18:36;;;;;;;8.80;7.33;;;16.40;64.30;;;;;;5069582;28;43898;-70
2022/01/23 08:21:04;;;;;;;8.10;7.30;;;16.40;64.50;;;;;;5070033;28;44098;-69
2022/01/23 08:23:33;;;;;;;7.70;7.00;;;16.30;64.50;;;;;;5086694;27;43588;-70
2022/01/23 08:26:01;;;;;;;7.87;7.13;;;16.30;64.60;;;;;;5069846;28;44691;-70
2022/01/23 08:28:30;;;;;;;8.17;7.37;;;16.30;64.70;;;;;;5069655;28;44115;-69
2022/01/23 08:30:59;;;;;;;8.27;7.47;;;16.30;64.90;;;;;;5052415;28;43519;-70
2022/01/23 08:33:28;;;;;;;7.30;6.60;;;16.30;64.80;;;;;;5070211;28;44298;-70
2022/01/23 08:35:57;;;;;;;7.67;6.97;;;16.50;64.50;;;;;;5069585;28;44792;-69
2022/01/23 08:38:25;;;;;;;10.03;6.80;;;16.50;64.00;;;;;;5069992;28;46092;-69
2022/01/23 08:43:41;;;;;;;8.07;7.27;;;16.50;64.20;;;;;;5071466;28;43609;-71
2022/01/23 08:46:11;;;;;;;7.73;7.00;;;16.40;64.20;;;;;;5069500;28;44106;-69
2022/01/23 08:48:41;;;;;;;7.10;6.50;;;16.40;64.50;;;;;;5086161;28;46444;-70
2022/01/23 08:51:09;;;;;;;7.20;6.50;;;16.30;64.50;;;;;;5069337;28;43997;-69
2022/01/23 08:53:37;;;;;;;7.60;6.93;;;16.30;64.60;;;;;;5070192;27;44020;-69
2022/01/23 08:56:06;;;;;;;8.07;7.27;;;16.30;64.80;;;;;;5069212;28;44784;-69
2022/01/23 08:58:34;;;;;;;7.97;7.27;;;16.30;64.80;;;;;;5085897;28;44017;-70
2022/01/23 09:01:02;;;;;;;8.50;6.70;;;16.20;64.90;;;;;;5053085;28;43867;-69
2022/01/23 09:03:32;;;;;;;7.10;6.50;;;16.20;65.00;;;;;;5070001;28;44080;-70
2022/01/23 09:06:00;;;;;;;7.30;6.67;;;16.20;65.00;;;;;;5069187;28;44998;-69
2022/01/23 09:08:28;;;;;;;7.87;7.13;;;16.20;65.00;;;;;;5081977;27;44269;-68
2022/01/23 09:10:59;;;;;;;7.33;6.73;;;16.20;65.10;;;;;;5049336;28;44117;-70
2022/01/23 09:13:53;;;;;;;7.83;7.07;;;16.30;65.10;;;;;;5079968;28;43614;-71
2022/01/23 09:16:21;;;;;;;7.87;6.80;;;16.40;64.60;;;;;;5043432;28;45081;-69
2022/01/23 09:18:52;;;;;;;9.23;7.40;;;16.60;64.10;;;;;;5052360;28;44403;-70
2022/01/23 09:21:20;;;;;;;8.03;7.10;;;16.80;63.50;;;;;;5085701;28;43994;-69
2022/01/23 09:23:50;;;;;;;7.40;6.67;;;16.90;63.00;;;;;;5087614;27;43956;-70
2022/01/23 09:26:21;;;;;;;7.53;6.90;;;16.90;62.90;;;;;;5085815;28;44054;-69
2022/01/23 09:28:49;;;;;;;6.83;6.20;;;16.80;63.20;;;;;;5069515;28;44515;-69
2022/01/23 09:31:28;;;;;;;8.13;6.83;;;16.70;63.50;;;;;;5086910;27;43625;-70
2022/01/23 09:33:57;;;;;;;6.97;6.47;;;16.60;63.80;;;;;;5070745;28;44001;-69
2022/01/23 09:36:26;;;;;;;6.70;6.20;;;16.50;64.00;;;;;;5068566;28;44286;-69
2022/01/23 09:38:54;;;;;;;6.77;6.27;;;16.50;64.30;;;;;;5062033;28;43909;-70
2022/01/23 09:41:27;;;;;;;7.23;6.63;;;16.40;64.50;;;;;;5062527;27;44045;-70
2022/01/23 09:43:56;;;;;;;6.83;6.33;;;16.30;64.50;;;;;;5079775;27;44042;-70
2022/01/23 09:46:25;;;;;;;6.53;6.03;;;16.30;64.50;;;;;;5068023;28;44009;-70
2022/01/23 09:48:54;;;;;;;7.23;6.63;;;16.30;64.70;;;;;;5068219;28;44804;-69
2022/01/23 09:51:25;;;;;;;8.20;7.47;;;16.30;64.80;;;;;;5068896;28;43972;-69
2022/01/23 09:53:54;;;;;;;6.87;6.37;;;16.30;64.90;;;;;;5085307;28;44220;-69
2022/01/23 09:56:34;;;;;;;7.03;6.43;;;16.40;64.60;;;;;;5067445;28;45104;-70
2022/01/23 09:59:02;;;;;;;6.83;6.33;;;16.60;64.20;;;;;;5069630;28;45703;-69
2022/01/23 10:01:30;;;;;;;7.03;6.40;;;16.80;63.60;;;;;;5084941;28;43983;-69
2022/01/23 10:04:01;;;;;;;6.87;6.27;;;16.80;63.20;;;;;;5052196;28;43942;-69
2022/01/23 10:06:31;;;;;;;6.73;6.23;;;16.70;63.20;;;;;;5068602;28;46021;-71
2022/01/23 10:09:01;;;;;;;6.77;6.27;;;16.70;63.50;;;;;;5068358;28;43889;-69
2022/01/23 10:11:31;;;;;;;7.03;6.50;;;16.60;63.80;;;;;;5067918;28;44016;-69
2022/01/23 10:14:00;;;;;;;6.10;5.63;;;16.50;64.00;;;;;;5085176;27;43959;-70
2022/01/23 10:16:30;;;;;;;7.00;6.40;;;16.50;64.20;;;;;;5068278;28;45864;-69
2022/01/23 10:18:58;;;;;;;6.73;6.23;;;16.40;64.20;;;;;;5084864;28;43706;-69
2022/01/23 10:21:26;;;;;;;7.03;6.43;;;16.30;64.00;;;;;;5068415;28;44315;-71
2022/01/23 10:23:58;;;;;;;7.57;6.87;;;16.30;63.90;;;;;;5068622;28;44031;-68
2022/01/23 10:26:43;;;;;;;6.47;6.00;;;16.30;64.50;;;;;;5068056;28;45970;-70
2022/01/23 10:29:16;;;;;;;7.77;7.03;;;16.30;64.50;;;;;;5067483;28;43875;-69
2022/01/23 10:32:06;;;;;;;7.67;6.87;;;16.20;64.50;;;;;;5051557;28;43945;-70
2022/01/23 10:34:46;;;;;;;7.33;6.63;;;16.30;64.50;;;;;;5084898;27;44001;-70
2022/01/23 10:37:26;;;;;;;6.80;6.40;;;16.50;64.40;;;;;;5085525;28;43976;-69
2022/01/23 10:40:05;;;;;;;6.93;6.43;;;16.60;63.80;;;;;;5069136;28;44860;-69
2022/01/23 10:48:39;;;;;;;7.17;6.67;;;16.60;63.80;;;;;;5084428;28;43838;-69
2022/01/23 10:51:22;;;;;;;6.77;6.33;;;16.50;64.10;;;;;;5068106;28;44389;-69
2022/01/23 10:54:15;;;;;;;6.20;5.70;;;16.50;64.30;;;;;;5067815;28;43850;-69
2022/01/23 10:57:02;;;;;;;6.53;6.03;;;16.40;64.70;;;;;;5084783;28;43476;-69
2022/01/23 10:59:43;;;;;;;6.50;6.07;;;16.30;64.60;;;;;;5067400;28;43948;-69
2022/01/23 11:02:11;;;;;;;5.90;5.50;;;16.30;64.80;;;;;;5066688;28;43941;-69
2022/01/23 11:04:57;;;;;;;6.63;6.03;;;16.30;64.90;;;;;;5067510;27;43360;-69
2022/01/23 11:07:26;;;;;;;6.03;5.73;;;16.30;65.10;;;;;;5070400;28;44286;-69
2022/01/23 11:10:03;;;;;;;6.20;5.80;;;16.20;65.00;;;;;;5071399;28;44121;-70
2022/01/23 11:18:04;;;;;;;5.83;5.50;;;16.50;64.70;;;;;;5088492;28;44024;-69
2022/01/23 11:20:34;;;;;;;5.93;5.53;;;16.60;64.10;;;;;;5053773;28;44433;-69
2022/01/23 11:23:04;;;;;;;4.70;4.50;;;16.70;63.90;;;;;;5070781;28;43988;-69
2022/01/23 11:25:32;;;;;;;5.67;5.10;;;16.60;63.90;;;;;;5070223;28;43395;-70
2022/01/23 11:28:05;;;;;;;5.73;5.23;;;16.60;64.20;;;;;;5071380;28;44010;-70
2022/01/23 11:30:43;;;;;;;5.30;4.90;;;16.50;64.30;;;;;;5053122;28;43869;-69
2022/01/23 11:33:12;;;;;;;5.13;4.93;;;16.40;64.50;;;;;;5084638;28;44012;-69
2022/01/23 11:35:40;;;;;;;5.63;5.33;;;16.40;64.60;;;;;;5088458;27;43974;-69
2022/01/23 11:38:13;;;;;;;5.30;5.00;;;16.30;64.70;;;;;;5087617;27;44224;-69
2022/01/23 11:54:40;;;;;;;4.80;4.60;;;16.30;65.50;;;;;;5073190;28;45604;-69
2022/01/23 11:57:50;;;;;;;4.93;4.73;;;16.40;65.10;;;;;;5070522;28;44051;-69
2022/01/23 12:00:26;;;;;;;4.53;4.33;;;16.60;64.60;;;;;;5053672;28;43484;-69
2022/01/23 12:03:13;;;;;;;4.70;4.50;;;16.70;64.00;;;;;;5070778;28;44074;-70
2022/01/23 12:05:43;;;;;;;3.97;3.87;;;16.70;64.50;;;;;;5069617;28;43635;-69
2022/01/23 12:08:23;;;;;;;4.63;4.33;;;16.70;64.00;;;;;;5070464;28;43964;-69
2022/01/23 12:17:18;;;;;;;4.90;4.70;;;16.40;64.60;;;;;;5071957;28;44034;-69
2022/01/23 12:19:49;;;;;;;4.40;4.20;;;16.40;64.80;;;;;;5069950;28;43455;-70
2022/01/23 12:22:26;;;;;;;4.20;4.00;;;16.30;65.00;;;;;;5086890;28;43602;-70
2022/01/23 12:24:56;;;;;;;4.30;4.10;;;16.30;65.20;;;;;;5069574;28;44681;-69
2022/01/23 12:27:26;;;;;;;4.30;4.10;;;16.30;65.30;;;;;;5087984;27;43502;-69
2022/01/23 12:29:55;;;;;;;4.73;4.53;;;16.20;65.30;;;;;;5069781;28;43468;-69
2022/01/23 12:32:26;;;;;;;4.60;4.40;;;16.20;65.40;;;;;;5086960;28;43475;-70
2022/01/23 12:34:59;;;;;;;4.20;4.00;;;16.20;65.50;;;;;;5086314;28;44088;-69
2022/01/23 12:37:28;;;;;;;3.80;3.70;;;16.40;65.10;;;;;;5070038;28;44511;-70
2022/01/23 12:40:23;;;;;;;4.23;4.03;;;16.50;64.70;;;;;;5069705;28;43948;-69
2022/01/23 12:43:05;;;;;;;3.80;3.70;;;16.50;64.60;;;;;;5086773;28;43630;-69
2022/01/23 12:45:54;;;;;;;3.80;3.70;;;16.50;64.70;;;;;;5069328;28;45244;-70
2022/01/23 12:48:45;;;;;;;3.77;3.67;;;16.40;64.80;;;;;;5069363;28;43994;-69
2022/01/23 12:51:43;;;;;;;3.90;3.80;;;16.30;64.90;;;;;;5086108;28;43922;-69
2022/01/23 12:54:22;;;;;;;4.20;4.00;;;16.30;65.20;;;;;;5069533;28;43527;-69
2022/01/23 12:56:51;;;;;;;3.90;3.70;;;16.20;65.20;;;;;;5069378;28;44092;-70
2022/01/23 12:59:28;;;;;;;4.10;3.90;;;16.20;65.30;;;;;;5087897;28;44005;-69
2022/01/23 13:02:01;;;;;;;3.57;3.47;;;16.20;65.40;;;;;;5086081;28;43534;-69
2022/01/23 13:04:40;;;;;;;3.80;3.70;;;16.20;65.60;;;;;;5053409;28;43977;-69
2022/01/23 13:07:21;;;;;;;3.83;3.63;;;16.20;65.60;;;;;;5065993;28;44035;-70
2022/01/23 13:09:54;;;;;;;3.73;3.63;;;16.10;65.50;;;;;;5065530;28;44006;-70
2022/01/23 13:12:35;;;;;;;3.90;3.80;;;16.20;65.80;;;;;;5086326;28;43404;-69
2022/01/23 13:15:21;;;;;;;3.87;3.67;;;16.20;65.80;;;;;;5071350;28;43662;-69
2022/01/23 13:17:58;;;;;;;4.07;3.87;;;16.40;65.40;;;;;;5064952;27;45204;-69
2022/01/23 13:31:44;;;;;;;3.30;3.20;;;16.60;64.20;;;;;;5071161;28;44136;-69
2022/01/23 13:34:26;;;;;;;3.50;3.40;;;16.50;64.50;;;;;;5085388;28;43838;-70
2022/01/23 13:36:57;;;;;;;3.57;3.47;;;16.40;64.70;;;;;;5069126;28;43447;-70
2022/01/23 13:39:27;;;;;;;3.50;3.40;;;16.40;64.80;;;;;;5085580;28;44066;-69
2022/01/23 13:42:09;;;;;;;3.33;3.23;;;16.30;65.00;;;;;;5085772;28;43996;-70
2022/01/23 13:53:11;;;;;;;3.90;3.80;;;16.20;65.60;;;;;;5071270;28;43976;-69
2022/01/23 13:58:40;;;;;;;3.57;3.47;;;16.40;65.00;;;;;;5033226;27;44529;-69
2022/01/23 14:01:34;;;;;;;3.47;3.37;;;16.50;64.70;;;;;;5069913;28;45120;-69
2022/01/23 14:04:02;;;;;;;3.30;3.20;;;16.50;64.70;;;;;;5080345;28;43986;-69
2022/01/23 14:06:31;;;;;;;3.50;3.40;;;16.40;64.80;;;;;;5068339;28;44060;-69
2022/01/23 14:09:08;;;;;;;3.47;3.37;;;16.40;65.00;;;;;;5068899;28;44079;-70
2022/01/23 14:11:36;;;;;;;3.60;3.50;;;16.30;65.10;;;;;;5067426;28;44877;-68
2022/01/23 14:14:12;;;;;;;3.63;3.53;;;16.30;65.20;;;;;;5068286;28;43960;-70
2022/01/23 14:16:40;;;;;;;3.30;3.20;;;16.20;65.30;;;;;;5068078;28;44055;-70
2022/01/23 14:19:22;;;;;;;3.50;3.30;;;16.20;66.20;;;;;;5051995;28;43614;-69
2022/01/23 14:21:52;;;;;;;2.87;2.87;;;16.20;65.60;;;;;;5068440;28;44646;-70
2022/01/23 14:24:22;;;;;;;3.40;3.30;;;16.20;65.60;;;;;;5068017;28;44068;-69
2022/01/23 14:27:02;;;;;;;3.40;3.30;;;16.20;65.70;;;;;;5095417;27;43953;-70
2022/01/23 14:29:30;;;;;;;3.43;3.33;;;16.10;65.70;;;;;;5085064;28;44137;-69
2022/01/23 14:32:07;;;;;;;3.10;3.00;;;16.10;65.80;;;;;;5067743;28;46021;-69
2022/01/23 14:34:35;;;;;;;3.30;3.20;;;16.20;65.90;;;;;;5067815;28;43992;-70
2022/01/23 14:37:08;;;;;;;3.30;3.20;;;16.30;65.50;;;;;;5086349;27;44137;-69
2022/01/23 14:39:37;;;;;;;3.20;3.10;;;16.50;65.00;;;;;;5085114;28;43964;-69
2022/01/23 14:42:17;;;;;;;2.90;2.90;;;16.70;64.50;;;;;;5086967;27;44731;-70
2022/01/23 14:44:46;;;;;;;3.23;3.13;;;16.70;64.10;;;;;;5088566;28;44319;-69
2022/01/23 14:47:14;;;;;;;3.30;3.20;;;16.70;64.10;;;;;;5088386;28;44019;-69
2022/01/23 14:49:46;;;;;;;3.30;3.20;;;16.70;64.20;;;;;;5071938;28;43939;-69
2022/01/23 14:52:14;;;;;;;3.13;3.03;;;16.60;64.50;;;;;;5071715;28;44898;-71
2022/01/23 14:54:44;;;;;;;3.30;3.20;;;16.50;64.70;;;;;;5054652;28;44463;-69
2022/01/23 14:57:16;;;;;;;3.37;3.27;;;16.40;64.80;;;;;;5055319;28;44037;-69
2022/01/23 14:59:45;;;;;;;3.40;3.23;;;16.30;64.90;;;;;;5072275;28;43878;-69
2022/01/23 15:02:13;;;;;;;3.20;3.10;;;16.30;65.10;;;;;;5065305;28;45066;-70
2022/01/23 15:04:43;;;;;;;3.23;3.13;;;16.30;65.30;;;;;;5070912;28;44032;-69
2022/01/23 15:07:15;;;;;;;3.23;3.13;;;16.30;65.40;;;;;;5054762;28;43926;-69
2022/01/23 15:09:46;;;;;;;3.10;3.00;;;16.20;65.50;;;;;;5087921;28;43432;-69
2022/01/23 15:12:17;;;;;;;2.90;2.90;;;16.20;65.60;;;;;;5070972;28;44109;-70
2022/01/23 15:14:46;;;;;;;3.10;3.00;;;16.30;66.60;;;;;;5071068;28;44043;-69
2022/01/23 15:17:18;;;;;;;3.10;3.00;;;16.40;65.40;;;;;;5071520;28;43946;-69
2022/01/23 15:19:47;;;;;;;2.90;2.90;;;16.50;65.00;;;;;;5071342;28;43883;-70
2022/01/23 15:22:17;;;;;;;3.00;2.90;;;16.50;64.70;;;;;;5087735;28;45628;-69
2022/01/23 15:24:50;;;;;;;2.80;2.70;;;16.50;64.70;;;;;;5070862;28;43985;-69
2022/01/23 15:27:18;;;;;;;3.23;3.13;;;16.40;64.80;;;;;;5087921;28;43993;-69
2022/01/23 15:29:47;;;;;;;2.93;2.90;;;16.40;65.10;;;;;;5071363;28;43467;-70
2022/01/23 15:32:16;;;;;;;3.23;3.13;;;16.30;65.20;;;;;;5087695;28;44003;-69
2022/01/23 15:34:44;;;;;;;3.00;2.90;;;16.30;65.40;;;;;;5070705;28;43898;-69
2022/01/23 15:37:14;;;;;;;3.30;3.20;;;16.30;65.50;;;;;;5070778;28;43384;-69
2022/01/23 15:39:43;;;;;;;3.20;3.10;;;16.20;65.60;;;;;;5087548;28;44050;-69
2022/01/23 15:42:15;;;;;;;3.10;3.03;;;16.20;65.70;;;;;;5054014;28;45022;-70
2022/01/23 15:44:43;;;;;;;3.20;3.10;;;16.20;65.70;;;;;;5088676;27;44102;-69
2022/01/23 15:47:12;;;;;;;3.30;3.20;;;16.20;65.80;;;;;;5070586;28;43909;-70
2022/01/23 15:49:42;;;;;;;3.20;3.10;;;16.20;65.80;;;;;;5087912;28;43921;-70
2022/01/23 15:52:12;;;;;;;3.00;3.00;;;16.20;65.90;;;;;;5087446;28;44126;-69
2022/01/23 15:54:41;;;;;;;3.03;2.93;;;16.20;66.00;;;;;;5070648;28;44037;-69
2022/01/23 15:57:09;;;;;;;3.20;3.10;;;16.30;65.60;;;;;;5054234;28;43951;-69
2022/01/23 15:59:40;;;;;;;3.17;3.07;;;16.50;65.20;;;;;;5087429;28;44178;-70